Time;durP1;ratioP1;P1;durP2;ratioP2;P2;SDS_P1;SDS_P2;PMS_P1;PMS_P2;Temp;Humidity;BMP_temperature;BMP_pressure;BME280_temperature;BME280_humidity;BME280_pressure;Samples;Min_cycle;Max_cycle;Signal;HPM_P1;HPM_P2
2023/08/07 00:02:21;;;;;;;3.33;1.50;;;;;;;12.59;100.00;97972.75;5050951;28;20220;-88
2023/08/07 00:04:47;;;;;;;3.37;1.63;;;;;;;12.59;100.00;97959.50;5050708;28;20738;-88
2023/08/07 00:07:14;;;;;;;1.93;1.60;;;;;;;12.58;100.00;97963.06;5050622;28;20204;-88
2023/08/07 00:09:40;;;;;;;3.27;1.50;;;;;;;12.60;100.00;97966.47;5050363;28;20214;-87
2023/08/07 00:12:07;;;;;;;2.73;1.47;;;;;;;12.62;100.00;97969.84;5053235;28;20211;-87
2023/08/07 00:14:35;;;;;;;2.10;1.30;;;;;;;12.65;100.00;97969.59;5054254;28;20231;-88
2023/08/07 00:17:01;;;;;;;2.80;1.60;;;;;;;12.61;100.00;97962.84;5054411;28;20218;-87
2023/08/07 00:19:29;;;;;;;3.57;1.60;;;;;;;12.61;100.00;97970.81;5053925;28;20208;-87
2023/08/07 00:21:55;;;;;;;2.57;1.20;;;;;;;12.63;100.00;97971.50;5054156;28;20216;-88
2023/08/07 00:24:21;;;;;;;2.30;1.50;;;;;;;12.63;100.00;97969.72;5054133;28;20221;-88
2023/08/07 00:26:48;;;;;;;2.70;1.23;;;;;;;12.56;100.00;97968.53;5054206;28;20299;-88
2023/08/07 00:29:14;;;;;;;3.40;1.40;;;;;;;12.59;100.00;97972.75;5053958;28;20208;-87
2023/08/07 00:31:42;;;;;;;1.57;1.13;;;;;;;12.61;100.00;97970.81;5054206;28;20224;-88
2023/08/07 00:34:09;;;;;;;2.03;1.30;;;;;;;12.60;100.00;97977.09;5053953;28;20203;-88
2023/08/07 00:36:36;;;;;;;3.37;1.60;;;;;;;12.63;100.00;97976.81;5054023;28;20256;-88
2023/08/07 00:39:03;;;;;;;2.07;1.37;;;;;;;12.65;100.00;97965.13;5053631;28;20208;-88
2023/08/07 00:41:30;;;;;;;1.70;1.47;;;;;;;12.65;100.00;97981.03;5053857;28;20232;-88
2023/08/07 00:43:56;;;;;;;2.73;1.27;;;;;;;12.67;100.00;97980.91;5053811;28;20210;-87
2023/08/07 00:46:23;;;;;;;2.33;1.43;;;;;;;12.71;100.00;97982.38;5053729;28;20232;-87
2023/08/07 00:48:53;;;;;;;5.23;1.73;;;;;;;12.70;100.00;97983.31;5052876;28;20299;-87
2023/08/07 00:51:20;;;;;;;2.43;1.30;;;;;;;12.70;100.00;97975.34;5053651;28;20231;-87
2023/08/07 00:53:49;;;;;;;3.50;1.40;;;;;;;12.71;100.00;97974.41;5053389;28;20277;-87
2023/08/07 00:56:16;;;;;;;3.23;1.43;;;;;;;12.75;100.00;97976.69;5052572;28;20211;-87
2023/08/07 00:58:42;;;;;;;1.93;1.20;;;;;;;12.72;100.00;97981.41;5053695;28;20211;-87
2023/08/07 01:01:09;;;;;;;2.47;1.37;;;;;;;12.71;100.00;97982.38;5058474;22;20244;-85
2023/08/07 01:03:35;;;;;;;3.83;1.30;;;;;;;12.72;100.00;97984.06;5031015;28;20227;-86
2023/08/07 01:06:04;;;;;;;5.33;1.50;;;;;;;12.78;100.00;97975.59;5031023;28;20232;-87
2023/08/07 01:08:31;;;;;;;3.93;1.57;;;;;;;12.76;100.00;97977.53;5032975;28;20215;-88
2023/08/07 01:11:11;;;;;;;2.50;1.53;;;;;;;12.71;100.00;97982.38;5033652;28;20725;-88
2023/08/07 01:13:43;;;;;;;2.90;1.30;;;;;;;12.68;100.00;97986.13;5033739;28;20188;-88
2023/08/07 01:16:15;;;;;;;3.93;1.50;;;;;;;12.68;100.00;97986.13;5033567;28;20216;-86
2023/08/07 01:18:43;;;;;;;2.83;1.53;;;;;;;12.71;100.00;97985.03;5033462;28;20216;-86
2023/08/07 01:21:19;;;;;;;3.20;1.70;;;;;;;12.69;100.00;97986.94;5033270;28;20228;-85
2023/08/07 01:23:48;;;;;;;2.53;1.50;;;;;;;12.73;100.00;97980.44;5033622;28;20213;-87
2023/08/07 01:26:14;;;;;;;4.07;1.70;;;;;;;12.67;100.00;97983.56;5033466;28;20248;-85
2023/08/07 01:28:47;;;;;;;3.07;1.40;;;;;;;12.72;100.00;97992.00;5033369;28;20207;-87
2023/08/07 01:31:16;;;;;;;2.10;1.60;;;;;;;12.68;100.00;97979.94;5033000;28;20718;-87
2023/08/07 01:33:51;;;;;;;3.13;2.20;;;;;;;12.66;100.00;97985.38;5033228;28;20206;-87
2023/08/07 01:36:19;;;;;;;3.00;1.90;;;;;;;12.74;100.00;97990.06;5033518;28;20216;-87
2023/08/07 01:38:47;;;;;;;2.07;1.50;;;;;;;12.74;100.00;97985.63;5033485;28;20286;-87
2023/08/07 01:41:15;;;;;;;3.07;1.50;;;;;;;12.73;100.00;97988.38;5032954;28;20230;-87
2023/08/07 01:43:41;;;;;;;2.40;1.30;;;;;;;12.70;100.00;97980.66;5033046;28;20216;-86
2023/08/07 01:46:08;;;;;;;2.00;1.40;;;;;;;12.76;100.00;97982.81;5033124;28;20240;-87
2023/08/07 01:48:34;;;;;;;3.00;1.43;;;;;;;12.71;100.00;97987.69;5033372;28;20208;-85
2023/08/07 01:51:01;;;;;;;1.73;1.30;;;;;;;12.76;100.00;97985.47;5032836;28;20616;-85
2023/08/07 01:53:27;;;;;;;2.57;1.30;;;;;;;12.75;100.00;97986.44;5033118;28;20216;-85
2023/08/07 01:55:54;;;;;;;2.13;1.40;;;;;;;12.67;100.00;97984.44;5033039;28;20208;-79
2023/08/07 01:58:22;;;;;;;2.57;1.70;;;;;;;12.67;100.00;97994.19;5033585;28;20214;-86
2023/08/07 02:00:48;;;;;;;2.93;1.40;;;;;;;12.62;100.00;97996.34;5034174;28;20239;-89
2023/08/07 02:03:15;;;;;;;6.07;1.77;;;;;;;12.68;100.00;97985.25;5034386;28;20599;-86
2023/08/07 02:05:41;;;;;;;2.73;1.40;;;;;;;12.72;100.00;97986.72;5032818;28;20230;-87
2023/08/07 02:08:08;;;;;;;3.20;1.37;;;;;;;12.72;100.00;97986.72;5032935;28;20213;-88
2023/08/07 02:10:35;;;;;;;3.00;1.40;;;;;;;12.71;100.00;97980.53;5033484;28;20238;-87
2023/08/07 02:13:01;;;;;;;2.80;1.70;;;;;;;12.64;100.00;97983.81;5034060;28;20213;-85
2023/08/07 02:15:29;;;;;;;3.67;1.50;;;;;;;12.71;100.00;97983.19;5034547;28;20204;-89
2023/08/07 02:17:56;;;;;;;4.20;1.43;;;;;;;12.69;100.00;97987.78;5033591;28;20209;-87
2023/08/07 02:20:22;;;;;;;4.23;1.30;;;;;;;12.70;100.00;97983.31;5032881;28;20241;-86
2023/08/07 02:22:49;;;;;;;2.93;1.50;;;;;;;12.68;100.00;97995.88;5032450;28;20208;-86
2023/08/07 02:25:15;;;;;;;2.43;1.40;;;;;;;12.68;100.00;97998.50;5033623;28;20214;-86
2023/08/07 02:27:42;;;;;;;3.77;1.60;;;;;;;12.64;100.00;98010.31;5032824;28;20246;-88
2023/08/07 02:30:09;;;;;;;2.40;1.40;;;;;;;12.66;100.00;98011.88;5032008;28;20722;-87
2023/08/07 02:32:37;;;;;;;3.50;1.40;;;;;;;12.60;100.00;98008.91;5032368;28;20212;-88
2023/08/07 02:35:04;;;;;;;4.00;1.70;;;;;;;12.51;100.00;98012.25;5031411;28;20599;-88
2023/08/07 02:37:30;;;;;;;3.23;1.40;;;;;;;12.50;100.00;98018.53;5032232;28;20211;-87
2023/08/07 02:39:57;;;;;;;2.30;1.60;;;;;;;12.47;100.00;98019.59;5031754;28;20213;-87
2023/08/07 02:42:23;;;;;;;3.47;1.47;;;;;;;12.49;100.00;98011.53;5032206;28;20210;-88
2023/08/07 02:44:50;;;;;;;3.10;1.80;;;;;;;12.49;100.00;98011.53;5032162;28;20209;-87
2023/08/07 02:47:16;;;;;;;2.50;1.33;;;;;;;12.45;100.00;98021.53;5032083;28;20241;-86
2023/08/07 02:49:44;;;;;;;5.10;1.63;;;;;;;12.44;100.00;98013.69;5031957;28;20221;-88
2023/08/07 02:52:11;;;;;;;3.50;1.67;;;;;;;12.44;100.00;98016.34;5032145;28;20223;-87
2023/08/07 02:54:37;;;;;;;2.60;1.70;;;;;;;12.43;100.00;98018.19;5032230;28;20219;-86
2023/08/07 02:57:04;;;;;;;3.47;1.57;;;;;;;12.40;100.00;98026.34;5032139;28;20204;-87
2023/08/07 02:59:31;;;;;;;3.60;1.80;;;;;;;12.36;100.00;98027.53;5031715;28;20221;-86
2023/08/07 03:01:57;;;;;;;3.07;1.63;;;;;;;12.33;100.00;98026.94;5031910;28;20247;-86
2023/08/07 03:04:24;;;;;;;4.07;1.80;;;;;;;12.33;100.00;98013.69;5031873;28;20580;-86
2023/08/07 03:06:51;;;;;;;4.33;1.80;;;;;;;12.33;100.00;98021.66;5031867;28;20232;-87
2023/08/07 03:09:18;;;;;;;3.10;1.77;;;;;;;12.30;100.00;98021.91;5031839;28;20587;-88
2023/08/07 03:11:44;;;;;;;3.80;1.83;;;;;;;12.23;100.00;98020.69;5031751;28;20236;-86
2023/08/07 03:14:11;;;;;;;4.27;1.67;;;;;;;12.27;100.00;98027.41;5031808;28;20220;-87
2023/08/07 03:16:37;;;;;;;2.20;1.47;;;;;;;12.25;100.00;98024.91;5031695;28;20575;-87
2023/08/07 03:19:04;;;;;;;3.50;1.70;;;;;;;12.28;100.00;98022.00;5031473;28;20585;-86
2023/08/07 03:21:30;;;;;;;4.10;1.90;;;;;;;12.31;100.00;98028.88;5031268;28;20263;-87
2023/08/07 03:23:58;;;;;;;3.70;1.50;;;;;;;12.33;100.00;98024.28;5031780;28;20211;-87
2023/08/07 03:26:25;;;;;;;3.53;1.53;;;;;;;12.35;100.00;98031.16;5031468;28;20228;-85
2023/08/07 03:28:51;;;;;;;3.97;1.47;;;;;;;12.35;100.00;98030.34;5031499;28;20215;-86
2023/08/07 03:31:18;;;;;;;7.00;1.80;;;;;;;12.38;100.00;98025.66;5031527;28;20230;-87
2023/08/07 03:33:44;;;;;;;2.80;1.50;;;;;;;12.39;100.00;98031.78;5031527;28;20224;-88
2023/08/07 03:36:11;;;;;;;3.50;1.50;;;;;;;12.37;100.00;98028.41;5031736;28;20214;-86
2023/08/07 03:38:38;;;;;;;3.47;1.80;;;;;;;12.39;100.00;98016.72;5031727;28;20215;-87
2023/08/07 03:41:06;;;;;;;5.10;1.60;;;;;;;12.36;100.00;98024.06;5031213;28;20630;-87
2023/08/07 03:43:32;;;;;;;3.13;1.43;;;;;;;12.43;100.00;98022.63;5031421;28;20212;-88
2023/08/07 03:45:59;;;;;;;5.83;1.67;;;;;;;12.37;100.00;98029.25;5033926;28;20244;-88
2023/08/07 03:48:25;;;;;;;4.17;1.30;;;;;;;12.39;100.00;98034.41;5035526;28;20208;-88
2023/08/07 03:50:52;;;;;;;4.17;1.70;;;;;;;12.43;100.00;98033.22;5035233;28;20256;-87
2023/08/07 03:53:18;;;;;;;4.17;1.50;;;;;;;12.45;100.00;98036.59;5035318;28;20231;-88
2023/08/07 03:55:50;;;;;;;2.57;1.63;;;;;;;12.44;100.00;98029.59;5035313;28;20217;-88
2023/08/07 03:58:18;;;;;;;4.27;1.67;;;;;;;12.41;100.00;98021.91;5035398;28;20212;-85
2023/08/07 04:00:45;;;;;;;2.23;1.40;;;;;;;12.44;100.00;98029.59;5034715;28;20617;-86
2023/08/07 04:03:11;;;;;;;3.13;1.50;;;;;;;12.44;100.00;98034.91;5035098;28;20208;-86
2023/08/07 04:05:38;;;;;;;6.83;1.80;;;;;;;12.48;100.00;98039.03;5035386;28;20219;-86
2023/08/07 04:08:05;;;;;;;2.43;1.87;;;;;;;12.48;100.00;98036.38;5035447;28;20213;-87
2023/08/07 04:10:31;;;;;;;3.97;1.70;;;;;;;12.44;100.00;98045.50;5035046;28;20231;-87
2023/08/07 04:12:58;;;;;;;1.97;1.30;;;;;;;12.42;100.00;98042.97;5035145;28;20220;-85
2023/08/07 04:15:27;;;;;;;6.10;1.80;;;;;;;12.36;100.00;98042.63;5035187;28;20216;-88
2023/08/07 04:17:54;;;;;;;3.70;1.73;;;;;;;12.43;100.00;98057.09;5035227;28;20209;-86
2023/08/07 04:20:20;;;;;;;2.33;1.40;;;;;;;12.47;100.00;98040.00;5044510;28;20235;-86
2023/08/07 04:22:47;;;;;;;3.27;1.60;;;;;;;12.50;100.00;98052.97;5043806;28;20212;-87
2023/08/07 04:25:14;;;;;;;2.37;1.53;;;;;;;12.46;100.00;98059.50;5035002;28;20212;-88
2023/08/07 04:27:40;;;;;;;3.70;1.73;;;;;;;12.50;100.00;98060.94;5035078;28;20623;-88
2023/08/07 04:30:08;;;;;;;4.63;1.50;;;;;;;12.48;100.00;98054.94;5034268;28;20233;-86
2023/08/07 04:32:35;;;;;;;3.53;1.80;;;;;;;12.50;100.00;98060.94;5044239;28;20217;-86
2023/08/07 04:35:02;;;;;;;5.93;1.63;;;;;;;12.50;100.00;98061.78;5056697;28;20216;-86
2023/08/07 04:37:30;;;;;;;2.53;1.03;;;;;;;12.54;100.00;98057.09;5059738;28;20207;-86
2023/08/07 04:39:56;;;;;;;4.27;1.60;;;;;;;12.60;100.00;98064.56;5059290;28;20231;-85
2023/08/07 04:42:23;;;;;;;2.67;1.33;;;;;;;12.57;100.00;98067.44;5043008;28;20209;-88
2023/08/07 04:44:50;;;;;;;2.67;1.50;;;;;;;12.55;100.00;98062.28;5034801;28;20211;-86
2023/08/07 04:47:16;;;;;;;2.37;1.53;;;;;;;12.52;100.00;98053.69;5036960;28;20233;-85
2023/08/07 04:49:44;;;;;;;3.67;1.67;;;;;;;12.54;100.00;98062.41;5035247;28;20219;-85
2023/08/07 04:52:10;;;;;;;2.57;1.40;;;;;;;12.60;100.00;98065.41;5034691;28;20209;-85
2023/08/07 04:54:37;;;;;;;5.93;1.73;;;;;;;12.68;100.00;98059.50;5034251;28;20647;-86
2023/08/07 04:57:04;;;;;;;3.00;1.40;;;;;;;12.63;100.00;98064.31;5033600;28;20205;-87
2023/08/07 04:59:31;;;;;;;2.83;1.40;;;;;;;12.68;100.00;98070.09;5033765;28;20212;-86
2023/08/07 05:01:58;;;;;;;2.67;1.63;;;;;;;12.65;100.00;98070.38;5033831;28;20233;-86
2023/08/07 05:04:24;;;;;;;3.83;1.60;;;;;;;12.68;100.00;98080.72;5033930;28;20581;-87
2023/08/07 05:06:53;;;;;;;2.97;1.50;;;;;;;12.73;100.00;98084.72;5034073;28;20236;-87
2023/08/07 05:09:19;;;;;;;2.83;1.57;;;;;;;12.75;100.00;98092.53;5034032;28;20214;-86
2023/08/07 05:11:46;;;;;;;3.57;1.57;;;;;;;12.77;100.00;98080.00;5034040;28;20242;-85
2023/08/07 05:14:12;;;;;;;3.90;1.50;;;;;;;12.79;100.00;98086.88;5033924;28;20244;-86
2023/08/07 05:16:39;;;;;;;5.03;2.30;;;;;;;12.79;100.00;98083.38;5034229;28;20216;-85
2023/08/07 05:19:05;;;;;;;6.67;2.40;;;;;;;12.79;100.00;98086.88;5033977;28;20209;-86
2023/08/07 05:21:32;;;;;;;3.17;1.60;;;;;;;12.81;100.00;98084.09;5033924;28;20706;-86
2023/08/07 05:24:00;;;;;;;3.27;1.50;;;;;;;12.85;100.00;98085.53;5043341;28;20193;-84
2023/08/07 05:26:28;;;;;;;3.67;1.40;;;;;;;12.86;100.00;98081.91;5058625;28;20304;-86
2023/08/07 05:28:57;;;;;;;4.10;1.50;;;;;;;12.86;100.00;98084.56;5058657;28;20201;-84
2023/08/07 05:31:23;;;;;;;2.17;1.40;;;;;;;12.87;100.00;98091.56;5058657;28;20279;-85
2023/08/07 05:33:50;;;;;;;7.67;4.80;;;;;;;12.89;100.00;98093.13;5057613;28;20199;-85
2023/08/07 05:36:16;;;;;;;4.03;1.73;;;;;;;13.02;100.00;98088.56;5043885;28;20204;-85
2023/08/07 05:38:43;;;;;;;4.57;1.70;;;;;;;13.09;100.00;98091.59;5036979;28;20219;-85
2023/08/07 05:41:11;;;;;;;5.13;1.63;;;;;;;13.12;100.00;98101.94;5039425;28;20221;-87
2023/08/07 05:43:37;;;;;;;2.43;1.60;;;;;;;13.16;100.00;98095.44;5038326;28;20216;-87
2023/08/07 05:46:04;;;;;;;3.13;1.50;;;;;;;13.19;99.50;98092.53;5037789;28;20302;-87
2023/08/07 05:48:30;;;;;;;3.33;1.73;;;;;;;13.19;98.52;98096.03;5035813;28;20399;-87
2023/08/07 05:50:57;;;;;;;3.40;1.43;;;;;;;13.16;98.91;98096.28;5033115;28;20229;-88
2023/08/07 05:53:24;;;;;;;2.07;1.40;;;;;;;13.19;98.36;98093.38;5033397;28;20215;-87
2023/08/07 05:55:50;;;;;;;2.47;1.50;;;;;;;13.26;97.30;98099.06;5033215;28;20209;-86
2023/08/07 05:58:18;;;;;;;4.73;1.60;;;;;;;13.36;96.81;98099.97;5033272;28;20205;-87
2023/08/07 06:00:46;;;;;;;1.97;1.20;;;;;;;13.45;96.47;98100.06;5032973;28;20272;-85
2023/08/07 06:03:12;;;;;;;2.77;1.53;;;;;;;13.58;97.10;98099.94;5033274;28;20217;-87
2023/08/07 06:05:39;;;;;;;4.40;1.37;;;;;;;13.68;95.27;98100.88;5032986;28;20288;-87
2023/08/07 06:08:06;;;;;;;2.00;1.50;;;;;;;13.79;94.97;98108.78;5032900;28;20239;-87
2023/08/07 06:10:32;;;;;;;3.30;1.70;;;;;;;13.86;92.97;98094.03;5032536;28;20231;-87
2023/08/07 06:12:59;;;;;;;2.83;1.23;;;;;;;13.88;93.41;98108.03;5032819;28;20212;-87
2023/08/07 06:15:27;;;;;;;3.53;1.40;;;;;;;13.91;94.32;98113.94;5032872;28;20216;-86
2023/08/07 06:17:53;;;;;;;4.97;1.40;;;;;;;13.84;92.14;98117.22;5032878;28;20213;-85
2023/08/07 06:20:20;;;;;;;3.53;1.40;;;;;;;13.84;91.82;98122.53;5032621;28;20236;-86
2023/08/07 06:22:47;;;;;;;4.87;1.60;;;;;;;13.83;92.52;98112.88;5033027;28;20206;-86
2023/08/07 06:25:13;;;;;;;1.90;1.27;;;;;;;13.83;93.35;98126.16;5032579;28;20215;-80
2023/08/07 06:27:40;;;;;;;3.73;1.90;;;;;;;13.84;94.09;98127.84;5032424;28;20236;-75
2023/08/07 06:30:07;;;;;;;5.30;1.50;;;;;;;13.88;92.18;98124.81;5032143;28;20261;-76
2023/08/07 06:32:36;;;;;;;3.20;2.00;;;;;;;13.97;93.05;98123.22;5032239;28;20206;-77
2023/08/07 06:35:04;;;;;;;6.30;1.80;;;;;;;14.31;93.66;98122.13;5032068;28;20648;-76
2023/08/07 06:37:30;;;;;;;2.27;1.37;;;;;;;14.93;89.79;98109.59;5031958;28;20210;-77
2023/08/07 06:39:57;;;;;;;3.93;2.00;;;;;;;15.10;85.70;98093.00;5031667;28;20310;-75
2023/08/07 06:42:23;;;;;;;3.90;2.03;;;;;;;15.04;85.91;98104.19;5031550;28;20205;-77
2023/08/07 06:44:50;;;;;;;2.83;1.70;;;;;;;14.72;85.81;98095.50;5031830;28;20210;-76
2023/08/07 06:47:16;;;;;;;3.00;1.73;;;;;;;14.50;86.31;98111.63;5031776;28;20229;-76
2023/08/07 06:49:44;;;;;;;3.57;1.63;;;;;;;14.56;86.80;98119.06;5031471;28;20300;-75
2023/08/07 06:52:11;;;;;;;4.87;1.60;;;;;;;14.53;84.55;98098.91;5031759;28;20648;-76
2023/08/07 06:54:37;;;;;;;3.27;1.60;;;;;;;14.43;84.72;98105.13;5031676;28;20221;-77
2023/08/07 06:57:05;;;;;;;5.13;1.70;;;;;;;14.34;85.06;98112.06;5032041;28;20326;-76
2023/08/07 06:59:32;;;;;;;2.23;1.30;;;;;;;14.44;85.04;98117.44;5031385;28;20676;-78
2023/08/07 07:01:58;;;;;;;1.97;1.23;;;;;;;14.51;85.49;98127.44;5046693;22;20238;-78
2023/08/07 07:04:25;;;;;;;2.43;1.40;;;;;;;14.61;84.56;98120.34;5031215;28;20213;-80
2023/08/07 07:06:52;;;;;;;1.77;1.20;;;;;;;14.79;82.06;98116.09;5031553;28;20351;-77
2023/08/07 07:09:19;;;;;;;2.63;1.30;;;;;;;14.99;79.67;98111.72;5031046;28;20668;-79
2023/08/07 07:11:45;;;;;;;6.30;1.37;;;;;;;15.10;78.81;98098.34;5031441;28;20242;-81
2023/08/07 07:14:12;;;;;;;3.07;1.20;;;;;;;15.18;78.37;98114.47;5032071;28;20210;-84
2023/08/07 07:16:38;;;;;;;2.57;1.20;;;;;;;15.36;76.29;98088.91;5036024;28;20212;-84
2023/08/07 07:19:06;;;;;;;4.43;1.40;;;;;;;15.38;76.17;98094.94;5034445;28;20669;-84
2023/08/07 07:21:33;;;;;;;3.93;1.20;;;;;;;15.52;76.09;98103.38;5035014;28;20256;-84
2023/08/07 07:24:02;;;;;;;4.20;1.20;;;;;;;15.41;73.46;98089.34;5034816;28;20663;-84
2023/08/07 07:26:29;;;;;;;2.83;1.10;;;;;;;15.58;75.02;98115.31;5031345;28;20215;-84
2023/08/07 07:28:55;;;;;;;2.57;1.30;;;;;;;15.55;74.57;98107.59;5031152;28;20234;-82
2023/08/07 07:31:22;;;;;;;1.80;1.30;;;;;;;15.55;73.56;98113.78;5030727;28;20230;-82
2023/08/07 07:33:48;;;;;;;3.77;1.30;;;;;;;15.53;75.99;98126.38;5031371;28;20230;-82
2023/08/07 07:36:17;;;;;;;2.77;1.30;;;;;;;15.46;75.69;98121.75;5031202;28;20216;-80
2023/08/07 07:38:43;;;;;;;7.23;1.73;;;;;;;15.61;77.87;98128.34;5031038;28;20207;-84
2023/08/07 07:41:11;;;;;;;2.07;1.50;;;;;;;15.70;77.01;98131.03;5030917;28;20232;-82
2023/08/07 07:43:38;;;;;;;3.27;1.53;;;;;;;15.81;76.53;98135.41;5031187;28;20255;-82
2023/08/07 07:46:04;;;;;;;3.70;1.30;;;;;;;15.83;77.79;98144.13;5030162;28;20440;-88
2023/08/07 07:48:31;;;;;;;7.20;1.60;;;;;;;15.81;77.73;98136.25;5029390;28;20231;-87
2023/08/07 07:51:00;;;;;;;2.13;1.47;;;;;;;15.90;77.40;98131.91;5030245;28;20238;-86
2023/08/07 07:53:26;;;;;;;4.83;1.70;;;;;;;15.70;77.17;98132.88;5030121;28;20821;-86
2023/08/07 07:55:53;;;;;;;6.40;1.43;;;;;;;15.78;77.03;98136.53;5030067;28;20211;-86
2023/08/07 07:58:21;;;;;;;3.60;1.40;;;;;;;15.73;76.18;98138.78;5029942;28;20207;-87
2023/08/07 08:00:47;;;;;;;2.13;1.30;;;;;;;15.75;76.95;98142.13;5029559;28;20310;-86
2023/08/07 08:03:14;;;;;;;3.07;1.43;;;;;;;15.80;76.48;98152.38;5030342;28;20238;-87
2023/08/07 08:05:40;;;;;;;2.67;1.20;;;;;;;15.78;74.41;98133.03;5030282;28;20238;-87
2023/08/07 08:08:08;;;;;;;1.73;1.40;;;;;;;15.80;74.68;98139.91;5029697;28;20234;-86
2023/08/07 08:10:34;;;;;;;1.80;1.30;;;;;;;15.84;73.54;98141.31;5029996;28;20235;-87
2023/08/07 08:13:03;;;;;;;1.33;1.23;;;;;;;15.87;72.85;98143.69;5030539;28;20204;-88
2023/08/07 08:15:30;;;;;;;2.20;1.40;;;;;;;15.75;74.33;98146.59;5031982;28;20212;-88
2023/08/07 08:17:57;;;;;;;2.87;1.10;;;;;;;15.81;73.91;98141.56;5032050;28;20215;-88
2023/08/07 08:20:24;;;;;;;2.50;1.30;;;;;;;15.90;73.89;98150.56;5031431;28;20236;-88
2023/08/07 08:22:50;;;;;;;2.43;1.47;;;;;;;15.90;72.80;98150.56;5031338;28;20912;-87
2023/08/07 08:25:17;;;;;;;1.57;1.20;;;;;;;15.68;73.23;98150.81;5030927;28;20250;-88
2023/08/07 08:27:44;;;;;;;5.80;1.40;;;;;;;15.74;75.22;98166.25;5030420;28;20228;-83
2023/08/07 08:30:11;;;;;;;2.40;1.50;;;;;;;16.00;76.51;98183.44;5029171;28;20432;-79
2023/08/07 08:32:39;;;;;;;2.77;1.37;;;;;;;15.97;74.47;98157.03;5029190;28;20216;-83
2023/08/07 08:35:06;;;;;;;2.83;1.60;;;;;;;16.17;72.26;98151.56;5033190;28;20215;-86
2023/08/07 08:37:33;;;;;;;2.90;1.20;;;;;;;16.17;70.90;98132.91;5033635;28;20292;-83
2023/08/07 08:39:59;;;;;;;3.47;1.37;;;;;;;16.36;71.63;98144.44;5032956;28;20205;-90
2023/08/07 08:42:26;;;;;;;2.97;1.10;;;;;;;16.49;70.11;98144.16;5032665;28;20607;-87
2023/08/07 08:44:53;;;;;;;2.97;1.10;;;;;;;16.63;68.85;98141.88;5033609;28;20208;-86
2023/08/07 08:47:21;;;;;;;3.93;1.50;;;;;;;16.66;67.96;98127.41;5033253;28;20239;-88
2023/08/07 08:49:54;;;;;;;1.90;1.20;;;;;;;16.71;65.22;98123.31;5032426;28;20204;-88
2023/08/07 08:52:21;;;;;;;2.17;1.43;;;;;;;16.81;64.86;98137.50;5033008;28;20239;-87
2023/08/07 08:54:49;;;;;;;1.47;1.37;;;;;;;16.71;64.90;98128.66;5033023;28;20220;-87
2023/08/07 08:57:15;;;;;;;2.10;0.90;;;;;;;16.67;62.01;98116.59;5034369;28;20214;-86
2023/08/07 08:59:43;;;;;;;1.17;1.07;;;;;;;16.80;62.96;98135.81;5033292;28;20209;-88
2023/08/07 09:02:10;;;;;;;2.10;1.13;;;;;;;16.86;62.19;98118.38;5032333;28;20253;-83
2023/08/07 09:04:37;;;;;;;2.23;1.00;;;;;;;17.00;62.52;98137.44;5032516;28;20659;-83
2023/08/07 09:07:06;;;;;;;2.67;0.93;;;;;;;17.20;62.43;98130.19;5031056;28;20558;-87
2023/08/07 09:09:33;;;;;;;1.60;1.00;;;;;;;17.25;60.59;98118.06;5029967;28;20237;-87
2023/08/07 09:12:00;;;;;;;1.70;1.03;;;;;;;17.27;61.55;98132.16;5012925;28;20234;-87
2023/08/07 09:14:31;;;;;;;1.97;1.20;;;;;;;17.34;61.62;98143.91;5021338;28;20223;-86
2023/08/07 09:17:00;;;;;;;2.10;0.90;;;;;;;17.27;62.43;98153.50;5032915;28;20304;-87
2023/08/07 09:19:27;;;;;;;1.73;1.00;;;;;;;17.31;61.46;98138.03;5032876;28;20205;-87
2023/08/07 09:21:56;;;;;;;3.30;1.00;;;;;;;17.36;61.70;98151.75;5032435;28;20229;-85
2023/08/07 09:24:24;;;;;;;1.93;1.27;;;;;;;17.45;62.04;98166.97;5032688;28;20208;-87
2023/08/07 09:26:52;;;;;;;2.53;1.17;;;;;;;17.64;62.01;98162.38;5032747;28;20209;-87
2023/08/07 09:29:19;;;;;;;1.13;0.93;;;;;;;17.59;60.80;98159.28;5032196;28;20233;-87
2023/08/07 09:31:46;;;;;;;2.20;1.17;;;;;;;17.50;60.69;98149.47;5032337;28;20229;-87
2023/08/07 09:34:14;;;;;;;1.03;0.90;;;;;;;17.59;59.95;98153.94;5032367;28;20256;-89
2023/08/07 09:36:41;;;;;;;2.03;1.10;;;;;;;17.59;60.19;98163.78;5032555;28;20316;-87
2023/08/07 09:39:08;;;;;;;1.40;1.00;;;;;;;17.73;59.61;98156.13;5032099;28;20213;-87
2023/08/07 09:41:36;;;;;;;2.73;1.10;;;;;;;17.85;59.81;98154.91;5032285;28;20601;-87
2023/08/07 09:44:07;;;;;;;2.90;1.20;;;;;;;17.71;56.59;98126.03;5032047;28;20228;-86
2023/08/07 09:46:42;;;;;;;1.27;1.03;;;;;;;17.61;58.74;98157.31;5032458;28;20320;-86
2023/08/07 09:49:08;;;;;;;1.47;1.17;;;;;;;17.62;58.96;98164.31;5032034;28;20208;-83
2023/08/07 09:51:43;;;;;;;2.37;1.20;;;;;;;17.54;58.59;98153.53;5031920;28;20236;-83
2023/08/07 09:54:09;;;;;;;2.30;1.13;;;;;;;17.75;59.91;98156.78;5032207;28;20258;-87
2023/08/07 09:56:37;;;;;;;5.50;1.40;;;;;;;17.83;58.29;98154.22;5031948;28;20217;-86
2023/08/07 09:59:04;;;;;;;1.57;1.27;;;;;;;17.97;58.83;98156.38;5031892;28;20208;-85
2023/08/07 10:01:31;;;;;;;2.17;1.20;;;;;;;18.20;59.50;98176.34;5031097;28;20258;-84
2023/08/07 10:03:58;;;;;;;2.47;1.53;;;;;;;18.24;58.13;98161.66;5030572;28;20215;-85
2023/08/07 10:06:25;;;;;;;2.60;1.30;;;;;;;18.21;56.36;98139.72;5029527;28;20222;-81
2023/08/07 10:08:53;;;;;;;1.30;1.00;;;;;;;18.43;58.12;98161.56;5029103;28;20236;-80
2023/08/07 10:11:20;;;;;;;2.40;1.30;;;;;;;18.64;58.49;98159.38;5028914;28;20255;-84
2023/08/07 10:13:48;;;;;;;2.40;1.30;;;;;;;18.73;55.28;98136.19;5031105;28;20209;-87
2023/08/07 10:16:15;;;;;;;2.53;1.20;;;;;;;19.04;57.06;98148.13;5031418;28;20209;-82
2023/08/07 10:18:42;;;;;;;1.43;1.00;;;;;;;19.26;55.86;98151.13;5029895;28;20201;-90
2023/08/07 10:21:08;;;;;;;1.70;0.97;;;;;;;19.35;53.02;98115.34;5028878;28;20233;-80
2023/08/07 10:23:36;;;;;;;1.40;0.97;;;;;;;19.39;53.03;98124.72;5028711;28;20314;-89
2023/08/07 10:26:05;;;;;;;2.10;1.17;;;;;;;19.30;53.12;98131.06;5030026;28;20205;-86
2023/08/07 10:28:34;;;;;;;2.87;1.13;;;;;;;19.02;52.36;98126.00;5031173;28;20228;-86
2023/08/07 10:31:02;;;;;;;1.87;1.20;;;;;;;18.92;54.45;98160.94;5030431;28;20228;-90
2023/08/07 10:33:30;;;;;;;2.33;1.10;;;;;;;18.79;53.84;98147.13;5028570;28;20214;-84
2023/08/07 10:35:59;;;;;;;1.67;1.10;;;;;;;18.72;55.43;98167.47;5028869;28;20212;-85
2023/08/07 10:38:26;;;;;;;1.93;1.10;;;;;;;18.71;54.10;98155.09;5028690;28;20204;-83
2023/08/07 10:41:03;;;;;;;2.80;1.30;;;;;;;18.61;54.81;98189.16;5030427;28;20308;-85
2023/08/07 10:43:30;;;;;;;3.23;1.43;;;;;;;18.26;55.53;98170.41;5030945;28;20305;-86
2023/08/07 10:46:05;;;;;;;2.23;1.20;;;;;;;18.14;54.94;98166.25;5028987;28;20288;-87
2023/08/07 10:48:39;;;;;;;1.80;1.40;;;;;;;18.12;57.03;98188.81;5026521;28;20289;-92
2023/08/07 10:51:05;;;;;;;2.03;1.10;;;;;;;18.05;55.36;98167.16;5028092;28;20236;-84
2023/08/07 10:53:33;;;;;;;2.57;1.17;;;;;;;18.00;56.68;98187.34;5028886;28;20209;-80
2023/08/07 10:56:02;;;;;;;2.27;1.30;;;;;;;17.98;56.32;98181.31;5030196;28;20208;-83
2023/08/07 10:58:32;;;;;;;2.00;1.00;;;;;;;17.67;56.47;98175.41;5030813;28;20201;-82
2023/08/07 11:01:28;;;;;;;2.43;1.40;;;;;;;17.61;54.74;98168.00;5030220;28;20243;-81
2023/08/07 11:03:58;;;;;;;3.00;1.30;;;;;;;17.58;54.69;98178.16;5030180;28;20627;-82
2023/08/07 11:06:27;;;;;;;1.37;1.17;;;;;;;17.48;55.04;98177.34;5030690;28;20271;-82
2023/08/07 11:08:53;;;;;;;1.90;1.10;;;;;;;17.31;54.62;98170.91;5030407;28;20252;-82
2023/08/07 11:11:21;;;;;;;1.40;1.13;;;;;;;17.11;55.10;98182.66;5030159;28;20866;-81
2023/08/07 11:13:47;;;;;;;1.57;1.10;;;;;;;16.91;56.57;98189.03;5030415;28;20577;-82
2023/08/07 11:16:14;;;;;;;3.07;1.57;;;;;;;16.80;57.63;98199.88;5030772;28;20208;-82
2023/08/07 11:18:43;;;;;;;2.97;1.33;;;;;;;16.76;58.80;98206.47;5030175;28;20326;-81
2023/08/07 11:21:11;;;;;;;2.50;1.30;;;;;;;16.79;59.35;98214.22;5030135;28;20600;-83
2023/08/07 11:23:38;;;;;;;1.67;1.50;;;;;;;16.86;58.47;98206.47;5029618;28;20745;-82
2023/08/07 11:26:05;;;;;;;1.83;1.33;;;;;;;16.99;59.37;98218.53;5030351;28;20299;-83
2023/08/07 11:28:31;;;;;;;1.47;1.30;;;;;;;17.09;59.40;98214.03;5031086;28;20291;-83
2023/08/07 11:30:58;;;;;;;1.73;1.23;;;;;;;17.23;58.28;98210.88;5030488;28;20228;-83